Time;durP1;ratioP1;P1;durP2;ratioP2;P2;SDS_P1;SDS_P2;PMS_P1;PMS_P2;Temp;Humidity;BMP_temperature;BMP_pressure;BME280_temperature;BME280_humidity;BME280_pressure;Samples;Min_cycle;Max_cycle;Signal;HPM_P1;HPM_P2
2021/06/19 00:00:30;;;;;;;2.47;2.00;;;22.60;73.10;;;;;;5096812;28;20282;-82
2021/06/19 00:02:58;;;;;;;3.93;2.30;;;22.60;74.00;;;;;;5096439;28;20291;-82
2021/06/19 00:05:24;;;;;;;3.07;2.17;;;22.60;73.40;;;;;;5095941;28;20171;-82
2021/06/19 00:07:50;;;;;;;3.23;2.20;;;22.50;76.20;;;;;;5097237;28;20264;-80
2021/06/19 00:10:17;;;;;;;3.60;2.23;;;22.60;78.70;;;;;;5098025;28;20198;-80
2021/06/19 00:12:44;;;;;;;3.53;2.17;;;22.70;78.40;;;;;;5095833;28;20171;-80
2021/06/19 00:15:12;;;;;;;5.00;2.20;;;22.50;78.80;;;;;;5097231;28;20179;-80
2021/06/19 00:17:39;;;;;;;3.50;2.37;;;22.50;79.90;;;;;;5096132;28;20177;-82
2021/06/19 00:20:08;;;;;;;4.40;2.33;;;22.50;82.20;;;;;;5096519;28;20632;-81
2021/06/19 00:22:33;;;;;;;4.90;2.33;;;22.10;84.50;;;;;;5094195;28;20225;-81
2021/06/19 00:24:59;;;;;;;3.03;2.10;;;22.10;86.50;;;;;;5096768;28;20175;-82
2021/06/19 00:27:24;;;;;;;3.53;2.20;;;22.00;86.90;;;;;;5096718;28;20238;-81
2021/06/19 00:29:50;;;;;;;2.60;2.03;;;22.10;87.20;;;;;;5096320;28;20225;-81
2021/06/19 00:32:16;;;;;;;2.90;2.50;;;22.10;86.00;;;;;;5095240;28;20296;-81
2021/06/19 00:34:41;;;;;;;3.67;2.40;;;22.00;86.20;;;;;;5095817;28;20168;-82
2021/06/19 00:37:07;;;;;;;3.40;2.20;;;21.90;88.30;;;;;;5096167;28;20630;-82
2021/06/19 00:39:32;;;;;;;4.33;2.20;;;21.90;88.70;;;;;;5095582;28;20656;-82
2021/06/19 00:41:58;;;;;;;4.80;2.20;;;21.90;87.80;;;;;;5096607;28;20171;-82
2021/06/19 00:44:24;;;;;;;9.63;5.20;;;21.80;85.60;;;;;;5096310;28;20295;-81
2021/06/19 00:46:51;;;;;;;2.87;2.13;;;21.80;84.40;;;;;;5095637;28;20252;-81
2021/06/19 00:49:17;;;;;;;3.20;2.20;;;21.70;84.20;;;;;;5095722;28;20174;-83
2021/06/19 00:51:43;;;;;;;3.67;2.40;;;21.60;83.90;;;;;;5096093;28;20178;-81
2021/06/19 00:54:08;;;;;;;3.07;2.27;;;21.70;80.50;;;;;;5095843;28;20204;-81
2021/06/19 00:56:36;;;;;;;3.13;2.40;;;21.80;81.10;;;;;;5095413;28;20198;-81
2021/06/19 00:59:07;;;;;;;3.83;2.20;;;21.60;81.90;;;;;;5096381;28;20201;-80
2021/06/19 01:01:33;;;;;;;3.07;2.40;;;21.50;80.60;;;;;;5095522;28;20177;-80
2021/06/19 01:04:01;;;;;;;3.87;2.50;;;21.50;80.40;;;;;;5094891;28;20170;-80
2021/06/19 01:06:27;;;;;;;3.60;2.73;;;21.50;80.90;;;;;;5095638;28;20177;-82
2021/06/19 01:08:53;;;;;;;3.80;2.60;;;21.60;80.40;;;;;;5095476;28;20169;-81
2021/06/19 01:11:21;;;;;;;4.50;2.43;;;21.40;80.60;;;;;;5096085;28;20177;-81
2021/06/19 01:13:51;;;;;;;3.17;2.53;;;21.40;82.50;;;;;;5095685;28;20666;-81
2021/06/19 01:16:20;;;;;;;2.57;2.37;;;21.40;82.80;;;;;;5095929;28;20258;-81
2021/06/19 01:18:47;;;;;;;2.73;2.07;;;21.40;80.70;;;;;;5095626;28;20209;-81
2021/06/19 01:21:17;;;;;;;3.30;2.67;;;21.50;78.20;;;;;;5095511;28;20177;-80
2021/06/19 01:23:45;;;;;;;4.10;2.57;;;21.50;76.30;;;;;;5098133;28;20169;-78
2021/06/19 01:26:16;;;;;;;4.63;2.53;;;21.40;78.90;;;;;;5115998;28;20149;-78
2021/06/19 01:28:44;;;;;;;4.03;2.80;;;21.30;79.70;;;;;;5114133;28;20210;-81
2021/06/19 01:31:10;;;;;;;3.93;3.00;;;21.30;80.30;;;;;;5112722;28;20162;-79
2021/06/19 01:33:41;;;;;;;3.37;2.77;;;21.30;78.60;;;;;;5116057;28;20169;-79
2021/06/19 01:36:07;;;;;;;4.63;2.80;;;21.20;78.90;;;;;;5107304;28;20183;-80
2021/06/19 01:38:38;;;;;;;4.47;3.40;;;21.00;79.50;;;;;;5111833;28;20217;-79
2021/06/19 01:41:04;;;;;;;4.40;3.37;;;20.90;81.00;;;;;;5098036;28;20184;-80
2021/06/19 01:43:30;;;;;;;3.77;3.37;;;20.80;82.50;;;;;;5097346;28;20520;-81
2021/06/19 01:45:55;;;;;;;4.23;3.57;;;20.70;83.80;;;;;;5098526;28;20173;-80
2021/06/19 01:48:24;;;;;;;4.73;3.37;;;20.70;84.70;;;;;;5105983;28;20169;-80
2021/06/19 01:50:50;;;;;;;7.53;3.77;;;20.80;83.40;;;;;;5109096;28;20168;-80
2021/06/19 01:53:16;;;;;;;3.97;3.10;;;20.80;80.90;;;;;;5099010;28;20160;-80
2021/06/19 01:55:43;;;;;;;4.40;3.50;;;20.70;82.40;;;;;;5095222;28;20156;-80
2021/06/19 01:58:11;;;;;;;4.23;3.13;;;20.70;82.30;;;;;;5095401;28;20196;-79
2021/06/19 02:00:38;;;;;;;5.90;4.03;;;20.70;82.50;;;;;;5094585;28;20205;-81
2021/06/19 02:03:08;;;;;;;4.10;3.40;;;20.70;81.20;;;;;;5095414;28;20651;-81
2021/06/19 02:05:34;;;;;;;4.20;3.80;;;20.70;81.20;;;;;;5093131;28;20249;-81
2021/06/19 02:08:02;;;;;;;4.97;4.47;;;20.70;81.20;;;;;;5094336;28;20298;-80
2021/06/19 02:10:35;;;;;;;5.03;4.40;;;20.70;81.70;;;;;;5094343;28;20187;-81
2021/06/19 02:13:03;;;;;;;4.57;3.80;;;20.60;83.60;;;;;;5094443;28;20229;-80
2021/06/19 02:15:29;;;;;;;4.43;4.03;;;20.60;84.00;;;;;;5092463;28;20217;-81
2021/06/19 02:17:55;;;;;;;6.90;4.67;;;20.50;84.90;;;;;;5093206;28;20530;-80
2021/06/19 02:20:21;;;;;;;6.20;4.47;;;20.50;85.60;;;;;;5093858;28;20625;-80
2021/06/19 02:22:47;;;;;;;4.70;3.70;;;20.70;84.20;;;;;;5093767;28;20166;-81
2021/06/19 02:25:15;;;;;;;5.27;4.57;;;20.50;84.00;;;;;;5094094;28;20199;-80
2021/06/19 02:27:55;;;;;;;4.30;3.87;;;20.40;85.50;;;;;;5094389;28;20229;-81
2021/06/19 02:30:23;;;;;;;4.33;3.93;;;20.50;83.80;;;;;;5093945;28;20247;-80
2021/06/19 02:32:51;;;;;;;5.30;3.93;;;20.50;82.60;;;;;;5094532;28;20165;-82
2021/06/19 02:35:17;;;;;;;4.67;4.27;;;20.50;83.20;;;;;;5094352;28;20260;-80
2021/06/19 02:37:43;;;;;;;6.60;5.00;;;20.40;85.50;;;;;;5093281;28;20172;-81
2021/06/19 02:40:09;;;;;;;5.20;4.70;;;20.30;86.60;;;;;;5094076;28;20206;-80
2021/06/19 02:42:35;;;;;;;5.43;4.93;;;20.30;88.00;;;;;;5094314;28;20177;-80
2021/06/19 02:45:01;;;;;;;5.90;5.40;;;20.30;88.50;;;;;;5095063;28;20585;-81
2021/06/19 02:47:26;;;;;;;6.30;5.37;;;20.40;87.20;;;;;;5095885;28;20647;-80
2021/06/19 02:49:52;;;;;;;5.73;5.13;;;20.40;87.10;;;;;;5095136;28;20171;-80
2021/06/19 02:52:17;;;;;;;6.27;5.67;;;20.50;88.20;;;;;;5094139;28;20265;-80
2021/06/19 02:54:44;;;;;;;6.83;5.87;;;20.40;88.20;;;;;;5092909;28;20172;-80
2021/06/19 02:57:10;;;;;;;6.83;5.47;;;20.70;86.90;;;;;;5094325;28;20251;-79
2021/06/19 02:59:39;;;;;;;6.93;5.33;;;20.50;86.50;;;;;;5094208;28;20676;-80
2021/06/19 03:02:05;;;;;;;6.40;5.70;;;20.50;85.00;;;;;;5094748;28;20175;-81
2021/06/19 03:04:30;;;;;;;6.73;5.00;;;20.40;83.70;;;;;;5093725;28;20252;-81
2021/06/19 03:06:56;;;;;;;6.23;5.60;;;20.10;84.50;;;;;;5091754;28;20192;-80
2021/06/19 03:09:22;;;;;;;6.17;5.20;;;20.00;85.90;;;;;;5093888;28;20224;-81
2021/06/19 03:11:48;;;;;;;6.20;5.60;;;19.90;86.00;;;;;;5094001;28;20179;-81
2021/06/19 03:14:15;;;;;;;7.50;5.80;;;19.80;88.00;;;;;;5093582;28;20164;-80
2021/06/19 03:16:41;;;;;;;6.63;5.60;;;19.70;90.00;;;;;;5094363;28;20167;-80
2021/06/19 03:19:09;;;;;;;6.67;5.60;;;19.70;90.00;;;;;;5093875;28;20245;-81
2021/06/19 03:21:35;;;;;;;6.53;5.83;;;19.60;90.40;;;;;;5094216;28;20178;-80
2021/06/19 03:24:01;;;;;;;7.07;5.57;;;19.70;90.00;;;;;;5093320;28;20180;-80
2021/06/19 03:26:27;;;;;;;6.93;5.90;;;19.70;89.60;;;;;;5094090;28;20321;-80
2021/06/19 03:28:53;;;;;;;8.70;6.13;;;19.70;90.10;;;;;;5094118;28;20247;-80
2021/06/19 03:31:19;;;;;;;6.30;5.70;;;19.70;90.30;;;;;;5094321;28;20172;-79
2021/06/19 03:33:44;;;;;;;7.27;6.43;;;19.80;89.20;;;;;;5093622;28;20635;-80
2021/06/19 03:36:10;;;;;;;8.53;6.70;;;19.90;87.20;;;;;;5093535;28;20631;-80
2021/06/19 03:38:35;;;;;;;8.03;7.33;;;19.90;87.70;;;;;;5093721;28;20294;-80
2021/06/19 03:41:01;;;;;;;8.63;7.57;;;19.70;89.30;;;;;;5093486;28;20200;-80
2021/06/19 03:43:27;;;;;;;8.67;7.83;;;19.60;90.80;;;;;;5092997;28;20182;-81
2021/06/19 03:45:53;;;;;;;11.37;8.70;;;19.60;91.70;;;;;;5094343;28;20173;-81
2021/06/19 03:48:18;;;;;;;11.80;9.53;;;19.60;91.90;;;;;;5093183;28;20243;-80
2021/06/19 03:50:44;;;;;;;12.60;10.50;;;19.60;92.60;;;;;;5093381;28;20173;-81
2021/06/19 03:53:10;;;;;;;11.93;10.73;;;19.40;92.90;;;;;;5093577;28;20180;-80
2021/06/19 03:55:36;;;;;;;13.60;12.20;;;19.40;93.20;;;;;;5093573;28;20175;-82
2021/06/19 03:58:02;;;;;;;14.00;12.60;;;19.30;93.40;;;;;;5094916;28;20566;-81
2021/06/19 04:00:29;;;;;;;15.17;13.67;;;19.40;93.90;;;;;;5096640;28;20183;-81
2021/06/19 04:02:56;;;;;;;14.43;13.03;;;19.20;94.00;;;;;;5096903;28;20638;-81
2021/06/19 04:05:21;;;;;;;14.00;12.60;;;19.10;94.70;;;;;;5096679;28;20576;-81
2021/06/19 04:07:48;;;;;;;13.03;11.83;;;19.00;95.50;;;;;;5097264;28;20246;-80
2021/06/19 04:10:15;;;;;;;16.60;14.10;;;19.00;95.90;;;;;;5096519;28;20270;-82
2021/06/19 04:12:40;;;;;;;14.57;13.17;;;19.10;95.20;;;;;;5096596;28;20249;-82
2021/06/19 04:15:08;;;;;;;13.93;12.63;;;19.20;94.50;;;;;;5097004;28;20576;-81
2021/06/19 04:17:34;;;;;;;15.20;12.80;;;19.20;94.00;;;;;;5097234;28;20180;-82
2021/06/19 04:20:00;;;;;;;14.30;12.90;;;19.30;93.40;;;;;;5096602;28;20681;-81
2021/06/19 04:22:25;;;;;;;14.13;12.90;;;19.30;93.60;;;;;;5097604;28;20179;-82
2021/06/19 04:24:51;;;;;;;15.60;13.97;;;19.10;93.90;;;;;;5096447;28;20567;-81
2021/06/19 04:27:19;;;;;;;14.97;13.57;;;19.10;94.90;;;;;;5097112;28;20225;-81
2021/06/19 04:29:46;;;;;;;15.07;13.53;;;19.00;95.10;;;;;;5095115;28;20178;-83
2021/06/19 04:32:14;;;;;;;14.97;13.37;;;19.00;95.00;;;;;;5096972;28;20265;-81
2021/06/19 04:34:41;;;;;;;12.97;11.67;;;19.10;94.80;;;;;;5096347;28;20168;-81
2021/06/19 04:37:08;;;;;;;13.07;11.77;;;19.00;95.70;;;;;;5096490;28;20233;-81
2021/06/19 04:39:37;;;;;;;11.63;10.57;;;19.00;95.50;;;;;;5095162;28;20580;-82
2021/06/19 04:42:07;;;;;;;12.40;10.40;;;19.10;95.50;;;;;;5097615;28;20235;-81
2021/06/19 04:45:07;;;;;;;13.43;10.37;;;19.10;94.70;;;;;;5097012;28;20250;-82
2021/06/19 04:47:26;;;;;;;11.07;10.03;;;19.20;93.70;;;;;;5103812;28;20228;-80
2021/06/19 04:49:53;;;;;;;11.53;10.43;;;19.40;92.80;;;;;;5102985;28;20558;-81
2021/06/19 04:52:19;;;;;;;11.67;10.57;;;19.40;92.20;;;;;;5096094;28;20731;-81
2021/06/19 04:54:48;;;;;;;12.03;10.90;;;19.10;92.60;;;;;;5096306;28;20174;-80
2021/06/19 04:57:13;;;;;;;13.40;10.13;;;19.10;93.20;;;;;;5095688;28;20566;-80
2021/06/19 04:59:39;;;;;;;10.33;9.30;;;19.00;93.40;;;;;;5095642;28;20204;-81
2021/06/19 05:02:05;;;;;;;11.97;10.20;;;19.10;92.40;;;;;;5095231;28;20266;-80
2021/06/19 05:04:30;;;;;;;11.87;10.67;;;19.00;92.00;;;;;;5096054;28;20171;-81
2021/06/19 05:06:56;;;;;;;10.83;9.73;;;19.00;92.70;;;;;;5096088;28;20250;-80
2021/06/19 05:09:22;;;;;;;12.03;10.80;;;19.10;92.80;;;;;;5094279;28;20182;-81
2021/06/19 05:11:47;;;;;;;13.77;10.23;;;19.10;92.20;;;;;;5096242;28;20639;-80
2021/06/19 05:14:13;;;;;;;11.27;10.17;;;19.00;92.40;;;;;;5095671;28;20564;-81
2021/06/19 05:16:39;;;;;;;12.30;11.00;;;19.00;92.80;;;;;;5094612;28;20596;-81
2021/06/19 05:19:05;;;;;;;12.23;11.00;;;19.00;92.20;;;;;;5095176;28;20570;-81
2021/06/19 05:21:30;;;;;;;12.73;11.30;;;19.00;92.30;;;;;;5094924;28;20159;-80
2021/06/19 05:23:56;;;;;;;12.47;11.30;;;18.80;93.00;;;;;;5094588;28;20226;-81
2021/06/19 05:26:22;;;;;;;12.07;10.87;;;18.90;93.40;;;;;;5095634;28;20172;-81
2021/06/19 05:28:47;;;;;;;12.80;11.60;;;18.70;93.30;;;;;;5095733;28;20164;-81
2021/06/19 05:31:13;;;;;;;13.37;11.07;;;18.70;93.70;;;;;;5094940;28;20167;-81
2021/06/19 05:33:39;;;;;;;11.93;10.83;;;18.70;93.20;;;;;;5094420;28;20251;-81
2021/06/19 05:36:04;;;;;;;12.47;11.27;;;18.70;93.70;;;;;;5093649;28;20646;-81
2021/06/19 05:38:31;;;;;;;10.93;9.83;;;18.80;93.80;;;;;;5094272;28;20211;-81
2021/06/19 05:40:57;;;;;;;11.60;10.40;;;18.90;92.30;;;;;;5101381;28;20195;-80
2021/06/19 05:43:22;;;;;;;10.43;9.53;;;19.00;91.70;;;;;;5099574;28;20704;-80
2021/06/19 05:45:48;;;;;;;11.17;9.97;;;19.20;90.80;;;;;;5097849;28;20531;-80
2021/06/19 05:48:14;;;;;;;11.03;9.93;;;19.10;90.40;;;;;;5101578;28;20167;-81
2021/06/19 05:50:41;;;;;;;9.57;8.40;;;19.10;90.50;;;;;;5108760;28;20616;-80
2021/06/19 05:53:06;;;;;;;9.77;8.80;;;19.20;91.30;;;;;;5100994;28;20260;-81
2021/06/19 05:55:32;;;;;;;9.83;8.87;;;19.10;91.00;;;;;;5099761;28;20500;-83
2021/06/19 05:57:57;;;;;;;9.60;8.17;;;19.20;90.70;;;;;;5103180;28;20164;-82
2021/06/19 06:00:23;;;;;;;9.50;8.40;;;19.30;90.20;;;;;;5107158;28;20168;-82
2021/06/19 06:02:49;;;;;;;8.47;6.37;;;19.40;89.10;;;;;;5106360;28;20167;-82
2021/06/19 06:05:15;;;;;;;7.30;6.37;;;19.60;82.80;;;;;;5108317;28;20175;-82
2021/06/19 06:07:41;;;;;;;7.47;5.77;;;19.60;81.10;;;;;;5106169;28;20168;-80
2021/06/19 06:10:07;;;;;;;6.67;5.23;;;19.60;81.80;;;;;;5103813;28;20205;-82
2021/06/19 06:12:33;;;;;;;8.07;4.63;;;19.60;82.40;;;;;;5100528;28;20192;-82
2021/06/19 06:14:59;;;;;;;6.80;5.00;;;19.60;78.30;;;;;;5094398;28;20199;-81
2021/06/19 06:17:25;;;;;;;4.80;4.30;;;19.60;80.30;;;;;;5094488;28;20165;-81
2021/06/19 06:19:52;;;;;;;6.27;4.60;;;19.60;80.80;;;;;;5094032;28;20244;-81
2021/06/19 06:22:17;;;;;;;6.23;4.63;;;19.60;81.00;;;;;;5095766;28;20168;-82
2021/06/19 06:24:43;;;;;;;8.13;7.33;;;19.60;80.00;;;;;;5094990;28;20167;-80
2021/06/19 06:27:09;;;;;;;6.80;6.03;;;19.70;77.60;;;;;;5099233;28;20164;-81
2021/06/19 06:29:34;;;;;;;7.07;6.30;;;19.60;78.50;;;;;;5105062;28;20233;-79
2021/06/19 06:32:00;;;;;;;7.90;6.10;;;19.50;83.50;;;;;;5099755;28;20176;-81
2021/06/19 06:34:26;;;;;;;6.17;5.57;;;19.40;85.80;;;;;;5095646;28;20235;-80
2021/06/19 06:36:53;;;;;;;5.77;5.03;;;19.60;85.50;;;;;;5095587;28;20271;-82
2021/06/19 06:39:19;;;;;;;5.77;5.20;;;19.60;81.20;;;;;;5095113;28;20211;-81
2021/06/19 06:41:45;;;;;;;6.33;5.20;;;19.70;81.00;;;;;;5094452;28;20227;-81
2021/06/19 06:44:11;;;;;;;4.83;4.33;;;19.70;80.20;;;;;;5093712;28;20179;-80
2021/06/19 06:46:37;;;;;;;5.80;4.90;;;19.80;78.40;;;;;;5093590;28;20634;-83
2021/06/19 06:49:03;;;;;;;5.47;4.23;;;19.90;75.10;;;;;;5094003;28;20262;-81
2021/06/19 06:51:28;;;;;;;5.77;4.37;;;20.00;75.90;;;;;;5095681;28;20218;-81
2021/06/19 06:53:54;;;;;;;5.97;4.77;;;20.00;75.10;;;;;;5092896;28;20301;-80
2021/06/19 06:56:20;;;;;;;5.93;4.37;;;20.20;71.70;;;;;;5093035;28;20304;-81
2021/06/19 06:58:46;;;;;;;6.60;4.40;;;20.20;67.40;;;;;;5094326;28;20207;-80
2021/06/19 07:01:11;;;;;;;6.03;4.73;;;20.30;64.40;;;;;;5092724;28;20644;-81
2021/06/19 07:03:37;;;;;;;4.97;4.40;;;20.40;63.90;;;;;;5093524;28;20245;-81
2021/06/19 07:06:03;;;;;;;6.43;4.90;;;20.40;67.30;;;;;;5093565;28;20176;-80
2021/06/19 07:08:29;;;;;;;6.50;4.70;;;20.40;65.60;;;;;;5094284;28;20217;-81
2021/06/19 07:10:55;;;;;;;6.97;4.83;;;20.40;66.00;;;;;;5095201;28;20188;-81
2021/06/19 07:13:20;;;;;;;6.43;4.33;;;20.40;64.40;;;;;;5092373;28;20168;-81
2021/06/19 07:15:46;;;;;;;4.73;4.30;;;20.60;62.90;;;;;;5088793;28;20218;-81
2021/06/19 07:18:12;;;;;;;5.87;4.53;;;20.50;61.00;;;;;;5096615;28;20168;-81
2021/06/19 07:20:38;;;;;;;6.07;4.07;;;20.40;63.50;;;;;;5094863;28;20180;-81
2021/06/19 07:23:05;;;;;;;8.47;4.30;;;20.60;62.80;;;;;;5096193;28;20168;-80
2021/06/19 07:25:31;;;;;;;5.17;4.67;;;20.40;63.50;;;;;;5096647;28;20172;-80
2021/06/19 07:27:58;;;;;;;5.77;4.57;;;20.50;61.40;;;;;;5095617;28;20196;-81
2021/06/19 07:30:26;;;;;;;5.17;4.53;;;20.40;61.20;;;;;;5095429;28;20176;-79
2021/06/19 07:32:53;;;;;;;5.60;5.10;;;20.50;61.60;;;;;;5098127;28;20218;-81
2021/06/19 07:35:19;;;;;;;6.13;4.67;;;20.60;60.10;;;;;;5098562;28;20175;-79
2021/06/19 07:37:45;;;;;;;6.57;5.50;;;20.70;57.90;;;;;;5097991;28;20168;-80
2021/06/19 07:40:11;;;;;;;5.93;4.63;;;20.70;55.90;;;;;;5099573;28;20738;-81
2021/06/19 07:42:37;;;;;;;5.63;4.57;;;20.80;56.10;;;;;;5105362;28;20185;-78
2021/06/19 07:45:07;;;;;;;5.87;4.50;;;20.80;53.30;;;;;;5106551;28;20640;-79
2021/06/19 07:47:34;;;;;;;5.97;5.33;;;20.90;51.40;;;;;;5099909;28;20255;-81
2021/06/19 07:49:59;;;;;;;7.17;6.03;;;20.80;51.00;;;;;;5080216;28;20291;-80
2021/06/19 07:52:25;;;;;;;8.47;5.67;;;20.60;55.40;;;;;;5095574;28;20308;-78
2021/06/19 07:54:51;;;;;;;6.67;5.13;;;20.40;61.70;;;;;;5099885;28;20167;-80
2021/06/19 07:57:17;;;;;;;8.97;6.30;;;20.50;63.70;;;;;;5101054;28;20165;-81
2021/06/19 07:59:43;;;;;;;6.40;5.70;;;20.60;61.90;;;;;;5086287;28;20672;-80
2021/06/19 08:02:09;;;;;;;7.50;6.00;;;20.60;61.70;;;;;;5087218;28;20231;-78
2021/06/19 08:04:35;;;;;;;9.07;7.83;;;20.50;64.40;;;;;;5088537;28;20654;-79
2021/06/19 08:07:02;;;;;;;9.90;7.80;;;20.00;74.30;;;;;;5095639;28;20259;-78
2021/06/19 08:09:28;;;;;;;9.33;8.23;;;19.80;78.80;;;;;;5099809;28;20191;-80
2021/06/19 08:11:55;;;;;;;9.27;7.90;;;19.90;81.00;;;;;;5111475;28;20172;-79
2021/06/19 08:14:21;;;;;;;9.67;8.60;;;19.60;80.00;;;;;;5127491;28;20188;-79
2021/06/19 08:16:53;;;;;;;8.90;7.80;;;19.50;83.70;;;;;;5122844;28;20156;-81
2021/06/19 08:19:20;;;;;;;9.37;8.37;;;19.50;84.80;;;;;;5120714;28;20194;-79
2021/06/19 08:21:47;;;;;;;10.33;9.33;;;19.50;83.70;;;;;;5120418;28;20158;-81
2021/06/19 08:24:12;;;;;;;9.57;8.57;;;19.50;84.40;;;;;;5115882;28;20177;-79
2021/06/19 08:26:39;;;;;;;10.33;8.67;;;19.50;85.20;;;;;;5100118;28;20175;-81
2021/06/19 08:29:09;;;;;;;9.07;8.17;;;19.70;85.10;;;;;;5099415;28;20160;-81
2021/06/19 08:31:36;;;;;;;9.20;8.30;;;19.80;80.40;;;;;;5100356;28;20156;-80
2021/06/19 08:34:03;;;;;;;9.47;8.03;;;19.90;78.60;;;;;;5099934;28;20168;-80
2021/06/19 08:36:30;;;;;;;9.10;7.40;;;20.00;76.40;;;;;;5100504;28;20172;-79
2021/06/19 08:38:59;;;;;;;7.50;6.80;;;20.20;76.30;;;;;;5098973;28;20208;-78
2021/06/19 08:41:26;;;;;;;6.90;6.07;;;20.30;71.00;;;;;;5099464;28;20187;-79
2021/06/19 08:43:52;;;;;;;11.03;9.93;;;20.40;60.30;;;;;;5099104;28;20179;-79
2021/06/19 08:46:20;;;;;;;12.13;10.80;;;20.40;61.10;;;;;;5099072;28;20559;-80
2021/06/19 08:48:49;;;;;;;13.33;12.13;;;20.30;63.40;;;;;;5099908;28;20628;-78
2021/06/19 08:51:17;;;;;;;11.90;10.03;;;20.30;62.80;;;;;;5104863;28;20159;-80
2021/06/19 08:53:43;;;;;;;11.20;10.03;;;20.20;57.60;;;;;;5106213;28;20159;-80
2021/06/19 08:56:09;;;;;;;13.30;12.10;;;19.90;66.00;;;;;;5106376;28;20171;-80
2021/06/19 08:58:35;;;;;;;12.40;11.13;;;19.80;72.00;;;;;;5105594;28;20642;-80
2021/06/19 09:01:02;;;;;;;11.73;10.53;;;19.80;73.80;;;;;;5101442;28;20183;-80
2021/06/19 09:03:28;;;;;;;12.77;11.40;;;19.80;71.50;;;;;;5101302;28;20275;-81
2021/06/19 09:06:27;;;;;;;12.90;11.33;;;19.90;72.20;;;;;;5100787;28;20172;-79
2021/06/19 09:09:07;;;;;;;12.93;10.97;;;19.90;71.20;;;;;;5099804;28;20168;-81
2021/06/19 09:11:38;;;;;;;12.27;10.30;;;20.00;70.80;;;;;;5098431;28;20226;-81
2021/06/19 09:14:07;;;;;;;11.87;10.67;;;20.00;69.00;;;;;;5100850;28;20242;-80
2021/06/19 09:16:34;;;;;;;10.67;9.63;;;20.00;69.20;;;;;;5097897;28;20167;-80
2021/06/19 09:18:59;;;;;;;10.63;9.60;;;20.00;71.00;;;;;;5098635;28;20298;-80
2021/06/19 09:21:31;;;;;;;9.33;8.43;;;20.00;69.70;;;;;;5098538;28;20334;-80
2021/06/19 09:23:57;;;;;;;9.87;8.20;;;20.00;66.70;;;;;;5098463;28;20176;-80
2021/06/19 09:26:28;;;;;;;9.77;8.77;;;20.00;66.80;;;;;;5098857;28;20175;-80
2021/06/19 09:29:09;;;;;;;8.07;7.37;;;20.20;65.40;;;;;;5099667;28;20164;-81
2021/06/19 09:31:41;;;;;;;9.23;8.27;;;20.20;59.10;;;;;;5098432;28;20167;-79
2021/06/19 09:34:18;;;;;;;8.70;6.90;;;20.30;57.30;;;;;;5100149;28;20243;-80
2021/06/19 09:36:45;;;;;;;10.40;9.37;;;20.40;55.80;;;;;;5100108;28;20554;-80
2021/06/19 09:39:13;;;;;;;13.87;12.47;;;20.40;56.70;;;;;;5099063;28;20215;-81
2021/06/19 09:41:43;;;;;;;16.00;11.83;;;20.40;58.60;;;;;;5098010;28;20171;-81
2021/06/19 09:44:09;;;;;;;11.83;10.63;;;20.40;58.90;;;;;;5096586;28;20252;-80
2021/06/19 09:46:35;;;;;;;12.30;10.67;;;20.50;57.20;;;;;;5096306;28;20672;-81
2021/06/19 09:49:15;;;;;;;14.00;12.67;;;20.60;54.40;;;;;;5095853;28;20168;-81
2021/06/19 09:51:48;;;;;;;13.23;11.70;;;20.20;59.90;;;;;;5096165;28;20457;-81
2021/06/19 09:54:15;;;;;;;14.57;11.97;;;20.20;61.80;;;;;;5094759;28;20534;-80
2021/06/19 09:56:55;;;;;;;12.37;11.03;;;20.40;58.40;;;;;;5096291;28;20671;-82
2021/06/19 09:59:29;;;;;;;12.30;11.00;;;20.40;56.70;;;;;;5096350;28;20686;-79
2021/06/19 10:01:57;;;;;;;13.10;11.70;;;20.50;57.50;;;;;;5107118;28;20250;-80
2021/06/19 10:04:26;;;;;;;14.50;11.17;;;20.50;58.00;;;;;;5099703;28;20262;-80
2021/06/19 10:06:53;;;;;;;13.00;11.73;;;20.50;56.30;;;;;;5104077;28;20169;-79
2021/06/19 10:09:19;;;;;;;14.53;13.03;;;20.30;62.80;;;;;;5113680;28;20181;-80
2021/06/19 10:11:48;;;;;;;13.53;11.80;;;20.50;56.90;;;;;;5112347;28;20172;-79
2021/06/19 10:14:17;;;;;;;12.70;11.40;;;20.60;54.10;;;;;;5114517;28;20150;-81
2021/06/19 10:16:50;;;;;;;12.63;11.33;;;20.50;55.00;;;;;;5112848;28;20617;-78
2021/06/19 10:19:19;;;;;;;17.20;13.10;;;20.30;58.30;;;;;;5106566;28;20597;-79
2021/06/19 10:21:46;;;;;;;13.17;11.87;;;20.20;62.90;;;;;;5103779;28;20168;-83
2021/06/19 10:24:13;;;;;;;12.70;11.50;;;20.30;62.30;;;;;;5099820;28;20173;-80
2021/06/19 10:26:41;;;;;;;10.83;9.70;;;20.50;58.30;;;;;;5098480;28;20173;-79
2021/06/19 10:29:09;;;;;;;11.60;10.00;;;20.80;56.70;;;;;;5098732;28;20672;-80
2021/06/19 10:31:41;;;;;;;10.70;9.60;;;21.00;49.20;;;;;;5096613;28;20181;-79
2021/06/19 10:34:25;;;;;;;13.63;9.83;;;21.00;43.30;;;;;;5096047;28;20215;-81
2021/06/19 10:36:57;;;;;;;11.47;10.27;;;21.20;32.10;;;;;;5099710;28;20171;-80
2021/06/19 10:39:44;;;;;;;10.90;9.77;;;21.50;25.40;;;;;;5102991;28;20259;-80
2021/06/19 10:42:32;;;;;;;12.03;10.83;;;21.40;23.50;;;;;;5096953;28;20184;-80
2021/06/19 10:45:05;;;;;;;10.13;9.03;;;21.30;25.10;;;;;;5095734;28;20722;-81
2021/06/19 10:48:06;;;;;;;11.33;10.13;;;21.30;28.80;;;;;;5095540;28;20179;-81
2021/06/19 10:50:33;;;;;;;10.03;9.03;;;21.30;27.10;;;;;;5095563;28;20174;-81
2021/06/19 10:53:12;;;;;;;11.03;9.93;;;21.40;23.70;;;;;;5095791;28;20153;-78
2021/06/19 10:55:44;;;;;;;12.63;10.03;;;21.40;23.90;;;;;;5094765;28;20157;-81
2021/06/19 10:58:24;;;;;;;9.97;9.07;;;21.50;25.20;;;;;;5094929;28;20201;-82
2021/06/19 11:00:58;;;;;;;9.87;8.83;;;21.40;27.00;;;;;;5094410;28;20673;-81
2021/06/19 11:03:49;;;;;;;10.37;9.10;;;21.30;26.00;;;;;;5095418;28;20168;-81
2021/06/19 11:06:29;;;;;;;8.97;8.07;;;21.30;27.10;;;;;;5098869;28;20217;-82
2021/06/19 11:09:15;;;;;;;8.80;7.53;;;21.40;29.50;;;;;;5098682;28;20185;-82
2021/06/19 11:12:01;;;;;;;10.20;6.90;;;21.50;24.40;;;;;;5099608;28;20180;-81
2021/06/19 11:14:43;;;;;;;8.07;7.10;;;21.60;25.30;;;;;;5099156;28;20174;-80
2021/06/19 11:17:21;;;;;;;11.43;7.20;;;21.80;13.10;;;;;;5099598;28;20252;-82
2021/06/19 11:19:55;;;;;;;8.17;7.37;;;21.70;16.40;;;;;;5100606;28;20212;-81
2021/06/19 11:22:26;;;;;;;8.10;6.57;;;21.80;17.40;;;;;;5100390;28;20216;-83
2021/06/19 11:25:10;;;;;;;8.50;7.53;;;22.10;12.60;;;;;;5099668;28;20181;-82
2021/06/19 11:28:02;;;;;;;8.13;7.10;;;22.30;1.00;;;;;;5098235;28;20862;-79
2021/06/19 11:30:34;;;;;;;11.13;8.07;;;22.40;1.00;;;;;;5099079;28;20166;-80
2021/06/19 11:33:21;;;;;;;8.83;6.63;;;22.40;1.00;;;;;;5098692;28;20162;-80
2021/06/19 11:35:46;;;;;;;7.87;6.90;;;22.60;1.00;;;;;;5098286;28;20262;-80
2021/06/19 11:38:13;;;;;;;8.23;6.93;;;22.90;1.00;;;;;;5096831;28;20249;-81
2021/06/19 11:40:41;;;;;;;8.27;7.07;;;23.10;1.00;;;;;;5099391;28;20195;-81
2021/06/19 11:43:09;;;;;;;6.90;6.20;;;23.20;1.00;;;;;;5098310;28;20178;-81
2021/06/19 11:45:37;;;;;;;7.30;6.27;;;23.20;1.00;;;;;;5099561;28;20168;-82
2021/06/19 11:48:18;;;;;;;8.33;7.03;;;23.20;1.00;;;;;;5097568;28;20168;-80
2021/06/19 11:50:45;;;;;;;7.17;6.43;;;22.90;1.00;;;;;;5095793;28;20168;-80
2021/06/19 11:53:34;;;;;;;7.50;6.33;;;22.70;1.00;;;;;;5099141;28;20185;-80
2021/06/19 11:56:06;;;;;;;8.80;6.97;;;22.60;1.00;;;;;;5097474;28;20173;-81
2021/06/19 11:58:54;;;;;;;6.93;6.13;;;22.50;1.00;;;;;;5098921;28;20211;-80
2021/06/19 12:01:37;;;;;;;7.80;7.00;;;22.60;1.00;;;;;;5098476;28;20212;-81
2021/06/19 12:04:05;;;;;;;7.93;7.20;;;22.60;1.00;;;;;;5098194;28;20652;-79
2021/06/19 12:06:39;;;;;;;8.57;7.77;;;22.40;1.00;;;;;;5096590;28;20621;-78
2021/06/19 12:09:07;;;;;;;7.97;6.90;;;22.10;1.00;;;;;;5096544;28;20299;-82
2021/06/19 12:11:38;;;;;;;10.40;7.70;;;22.20;7.70;;;;;;5098246;28;20507;-81
2021/06/19 12:14:22;;;;;;;9.07;6.90;;;22.40;1.00;;;;;;5097594;28;20171;-81
2021/06/19 12:16:50;;;;;;;7.73;6.90;;;22.50;1.00;;;;;;5095813;28;20185;-79
2021/06/19 12:19:17;;;;;;;7.73;7.03;;;22.60;1.00;;;;;;5089502;28;20288;-81
2021/06/19 12:21:44;;;;;;;7.63;6.87;;;22.60;1.00;;;;;;5087434;28;20211;-79
2021/06/19 12:24:30;;;;;;;9.20;7.77;;;22.60;1.00;;;;;;5097563;28;20174;-82
2021/06/19 12:27:10;;;;;;;8.40;7.60;;;22.50;1.00;;;;;;5097485;28;20198;-82
2021/06/19 12:29:41;;;;;;;9.17;7.37;;;22.50;1.00;;;;;;5098745;28;20180;-80
2021/06/19 12:32:29;;;;;;;9.93;6.57;;;22.30;1.00;;;;;;5097298;28;20163;-80
2021/06/19 12:35:15;;;;;;;7.87;6.73;;;22.10;1.00;;;;;;5097984;28;20529;-81
2021/06/19 12:37:48;;;;;;;7.77;6.97;;;22.10;1.10;;;;;;5096027;28;20175;-80
2021/06/19 12:40:14;;;;;;;8.77;6.77;;;22.30;1.00;;;;;;5081802;28;20290;-80
2021/06/19 12:42:48;;;;;;;13.60;10.77;;;22.40;1.00;;;;;;5077916;28;20218;-79
2021/06/19 12:45:22;;;;;;;7.90;7.13;;;22.70;1.00;;;;;;5105359;28;20171;-81
2021/06/19 12:47:50;;;;;;;8.23;7.40;;;22.90;1.00;;;;;;5089791;28;20796;-79
2021/06/19 12:50:33;;;;;;;13.40;7.57;;;23.20;1.00;;;;;;5101929;28;20184;-80